createdAt,value
2019-03-19T00:00:30.500Z,2.42
2019-03-19T00:03:03.455Z,2.33
2019-03-19T00:05:35.326Z,2.34
2019-03-19T00:08:06.996Z,2.38
2019-03-19T00:10:38.303Z,2.42
2019-03-19T00:13:09.650Z,2.41
2019-03-19T00:15:41.021Z,2.37
2019-03-19T00:18:12.595Z,2.37
2019-03-19T00:20:44.037Z,2.41
2019-03-19T00:23:15.713Z,2.42
2019-03-19T00:25:47.459Z,2.51
2019-03-19T00:28:19.575Z,2.50
2019-03-19T00:30:52.220Z,2.51
2019-03-19T00:33:23.536Z,2.54
2019-03-19T00:35:55.764Z,2.54
2019-03-19T00:38:27.522Z,2.55
2019-03-19T00:40:59.677Z,2.58
2019-03-19T00:43:31.661Z,2.54
2019-03-19T00:46:03.506Z,2.53
2019-03-19T00:48:34.780Z,2.51
2019-03-19T00:51:06.722Z,2.50
2019-03-19T00:53:38.506Z,2.50
2019-03-19T00:56:10.043Z,2.44
2019-03-19T00:58:42.178Z,2.47
2019-03-19T01:01:14.114Z,2.46
2019-03-19T01:03:45.484Z,2.39
2019-03-19T01:06:17.111Z,2.39
2019-03-19T01:08:49.179Z,2.40
2019-03-19T01:11:20.555Z,2.45
2019-03-19T01:13:51.904Z,2.39
2019-03-19T01:16:23.261Z,2.40
2019-03-19T01:18:54.831Z,2.40
2019-03-19T01:21:26.279Z,2.42
2019-03-19T01:23:57.906Z,2.45
2019-03-19T01:26:29.285Z,2.48
2019-03-19T01:29:01.706Z,2.47
2019-03-19T01:31:35.007Z,2.52
2019-03-19T01:34:06.690Z,2.56
2019-03-19T01:36:38.338Z,2.56
2019-03-19T01:39:09.792Z,2.64
2019-03-19T01:41:41.496Z,2.64
2019-03-19T01:44:12.796Z,2.65
2019-03-19T01:46:44.289Z,2.65
2019-03-19T01:49:15.984Z,2.65
2019-03-19T01:51:50.712Z,2.62
2019-03-19T01:54:22.287Z,2.65
2019-03-19T01:56:53.575Z,2.61
2019-03-19T01:59:24.961Z,2.60
2019-03-19T02:01:56.606Z,2.56
2019-03-19T02:04:27.920Z,2.56
2019-03-19T02:06:59.631Z,2.58
2019-03-19T02:09:31.669Z,2.53
2019-03-19T02:12:03.021Z,2.58
2019-03-19T02:14:34.351Z,2.56
2019-03-19T02:17:05.851Z,2.58
2019-03-19T02:19:38.447Z,2.56
2019-03-19T02:22:09.923Z,2.60
2019-03-19T02:24:41.709Z,2.59
2019-03-19T02:27:13.784Z,2.55
2019-03-19T02:29:45.095Z,2.54
2019-03-19T02:32:17.535Z,2.58
2019-03-19T02:34:49.538Z,2.53
2019-03-19T02:37:20.900Z,2.51
2019-03-19T02:39:53.645Z,2.53
2019-03-19T02:42:25.337Z,2.45
2019-03-19T02:44:57.005Z,2.43
2019-03-19T02:47:28.482Z,2.37
2019-03-19T02:50:00.380Z,2.31
2019-03-19T02:52:31.773Z,2.29
2019-03-19T02:55:03.144Z,2.25
2019-03-19T02:57:35.049Z,2.28
2019-03-19T03:00:07.540Z,2.24
2019-03-19T03:02:39.983Z,2.22
2019-03-19T03:05:13.730Z,2.12
2019-03-19T03:07:45.851Z,2.12
2019-03-19T03:10:19.020Z,2.10
2019-03-19T03:12:53.001Z,2.08
2019-03-19T03:15:24.942Z,2.08
2019-03-19T03:17:56.964Z,2.06
2019-03-19T03:20:28.638Z,2.05
2019-03-19T03:23:00.385Z,2.07
2019-03-19T03:25:31.840Z,1.99
2019-03-19T03:28:03.074Z,2.03
2019-03-19T03:30:34.315Z,2.07
2019-03-19T03:33:05.893Z,2.05
2019-03-19T03:35:37.529Z,2.04
2019-03-19T03:38:08.799Z,2.08
2019-03-19T03:40:40.153Z,2.14
2019-03-19T03:43:12.376Z,2.16
2019-03-19T03:45:43.974Z,2.16
2019-03-19T03:48:15.691Z,2.23
2019-03-19T03:50:48.713Z,2.22
2019-03-19T03:53:19.935Z,2.24
2019-03-19T04:02:04.458Z,2.30
2019-03-19T04:04:35.962Z,2.27
2019-03-19T04:07:07.235Z,2.26
2019-03-19T04:09:38.495Z,2.29
2019-03-19T04:12:09.996Z,2.28
2019-03-19T04:14:42.381Z,2.26
2019-03-19T04:17:14.340Z,2.26
2019-03-19T04:19:45.911Z,2.21
2019-03-19T04:22:17.432Z,2.20
2019-03-19T04:24:49.291Z,2.14
2019-03-19T04:27:20.828Z,2.13
2019-03-19T04:29:52.064Z,2.09
2019-03-19T04:32:23.349Z,2.04
2019-03-19T04:34:55.200Z,2.00
2019-03-19T04:37:26.472Z,1.96
2019-03-19T04:39:58.046Z,1.92
2019-03-19T04:42:29.301Z,1.90
2019-03-19T04:45:00.961Z,1.89
2019-03-19T04:47:32.617Z,1.83
2019-03-19T04:50:04.799Z,1.81
2019-03-19T04:52:36.326Z,1.78
2019-03-19T04:55:08.451Z,1.75
2019-03-19T04:57:39.654Z,1.70
2019-03-19T05:00:11.688Z,1.64
2019-03-19T05:02:44.195Z,1.58
2019-03-19T05:05:15.814Z,1.60
2019-03-19T05:07:47.043Z,1.58
2019-03-19T05:10:18.333Z,1.59
2019-03-19T05:12:49.571Z,1.61
2019-03-19T05:15:20.782Z,1.52
2019-03-19T05:17:53.082Z,1.51
2019-03-19T05:20:24.349Z,1.47
2019-03-19T05:22:55.561Z,1.45
2019-03-19T05:25:26.806Z,1.39
2019-03-19T05:27:58.328Z,1.41
2019-03-19T05:30:34.314Z,1.40
2019-03-19T05:33:06.532Z,1.43
2019-03-19T05:35:37.733Z,1.37
2019-03-19T05:38:08.959Z,1.34
2019-03-19T05:40:41.503Z,1.35
2019-03-19T05:43:12.685Z,1.34
2019-03-19T05:45:45.042Z,1.27
2019-03-19T05:48:16.299Z,1.30
2019-03-19T05:50:47.832Z,1.30
2019-03-19T05:53:19.346Z,1.32
2019-03-19T05:55:50.661Z,1.29
2019-03-19T05:58:22.033Z,1.27
2019-03-19T06:00:54.465Z,1.31
2019-03-19T06:03:26.391Z,1.27
2019-03-19T06:05:57.621Z,1.35
2019-03-19T06:08:29.408Z,1.36
2019-03-19T06:11:00.718Z,1.36
2019-03-19T06:13:32.867Z,1.34
2019-03-19T06:16:04.418Z,1.41
2019-03-19T06:18:35.863Z,1.52
2019-03-19T06:21:07.255Z,1.53
2019-03-19T06:23:38.495Z,1.59
2019-03-19T06:26:10.003Z,1.68
2019-03-19T06:28:41.245Z,1.76
2019-03-19T06:31:12.460Z,1.79
2019-03-19T06:33:44.413Z,1.84
2019-03-19T06:36:15.664Z,1.86
2019-03-19T06:38:47.568Z,1.92
2019-03-19T06:41:18.812Z,1.97
2019-03-19T06:43:50.010Z,2.01
2019-03-19T06:46:21.538Z,2.04
2019-03-19T06:48:53.551Z,2.07
2019-03-19T06:51:25.504Z,2.10
2019-03-19T06:53:57.079Z,2.13
2019-03-19T06:56:28.624Z,2.19
2019-03-19T06:59:00.448Z,2.29
2019-03-19T07:01:32.296Z,2.49
2019-03-19T07:04:03.668Z,2.59
2019-03-19T07:06:35.188Z,2.64
2019-03-19T07:09:09.703Z,2.73
2019-03-19T07:11:41.663Z,2.76
2019-03-19T07:14:12.926Z,2.83
2019-03-19T07:16:44.181Z,2.97
2019-03-19T07:19:15.746Z,3.06
2019-03-19T07:21:47.007Z,3.14
2019-03-19T07:24:18.881Z,3.18
2019-03-19T07:26:50.434Z,3.23
2019-03-19T07:29:21.997Z,3.28
2019-03-19T07:31:53.540Z,3.33
2019-03-19T07:34:25.019Z,3.37
2019-03-19T07:36:56.525Z,3.39
2019-03-19T07:39:27.736Z,3.43
2019-03-19T07:41:58.991Z,3.47
2019-03-19T07:44:30.576Z,3.54
2019-03-19T07:47:02.159Z,3.52
2019-03-19T07:49:33.754Z,3.55
2019-03-19T07:52:04.971Z,3.58
2019-03-19T07:54:38.384Z,3.61
2019-03-19T07:57:10.463Z,3.69
2019-03-19T07:59:42.320Z,3.74
2019-03-19T08:02:15.393Z,3.77
2019-03-19T08:04:47.072Z,3.84
2019-03-19T08:07:18.335Z,3.86
2019-03-19T08:09:49.884Z,3.97
2019-03-19T08:12:22.112Z,4.00
2019-03-19T08:14:53.879Z,3.98
2019-03-19T08:17:25.465Z,4.06
2019-03-19T08:19:57.295Z,4.13
2019-03-19T08:22:29.211Z,4.15
2019-03-19T08:25:00.762Z,4.19
2019-03-19T08:27:32.226Z,4.23
2019-03-19T08:30:03.610Z,4.33
2019-03-19T08:32:34.902Z,4.40
2019-03-19T08:35:07.143Z,4.52
2019-03-19T08:37:39.299Z,4.59
2019-03-19T08:40:12.171Z,4.87
2019-03-19T08:42:44.273Z,5.21
2019-03-19T08:45:15.735Z,5.67
2019-03-19T08:47:47.309Z,6.01
2019-03-19T08:50:18.925Z,6.42
2019-03-19T08:52:50.271Z,6.65
2019-03-19T08:55:21.494Z,6.46
2019-03-19T08:57:52.759Z,7.14
2019-03-19T09:00:24.028Z,6.69
2019-03-19T09:02:55.810Z,6.79
2019-03-19T09:05:27.747Z,6.78
2019-03-19T09:08:00.056Z,6.61
2019-03-19T09:10:31.569Z,6.69
2019-03-19T09:13:02.810Z,6.51
2019-03-19T09:15:34.413Z,6.56
2019-03-19T09:18:05.724Z,6.61
2019-03-19T09:20:37.092Z,6.53
2019-03-19T09:23:08.329Z,6.65
2019-03-19T09:25:39.545Z,6.48
2019-03-19T09:28:11.111Z,6.44
2019-03-19T09:30:42.725Z,6.50
2019-03-19T09:33:14.013Z,6.41
2019-03-19T09:35:45.379Z,6.58
2019-03-19T09:38:16.587Z,6.86
2019-03-19T09:40:48.111Z,7.03
2019-03-19T09:43:19.375Z,7.03
2019-03-19T09:45:50.573Z,7.11
2019-03-19T09:48:21.831Z,7.30
2019-03-19T09:50:53.725Z,7.32
2019-03-19T09:53:25.277Z,7.56
2019-03-19T09:55:56.866Z,7.67
2019-03-19T09:58:28.109Z,7.91
2019-03-19T10:00:59.653Z,7.98
2019-03-19T10:03:31.272Z,8.05
2019-03-19T10:06:13.655Z,8.07
2019-03-19T10:08:36.367Z,7.89
2019-03-19T10:11:08.064Z,7.81
2019-03-19T10:13:39.671Z,7.96
2019-03-19T10:16:11.359Z,8.15
2019-03-19T10:18:42.629Z,8.10
2019-03-19T10:21:13.904Z,8.19
2019-03-19T10:23:45.487Z,8.42
2019-03-19T10:26:17.331Z,8.39
2019-03-19T10:28:48.916Z,8.70
2019-03-19T10:31:20.171Z,9.09
2019-03-19T10:33:52.141Z,9.16
2019-03-19T10:36:25.258Z,9.69
2019-03-19T10:38:56.825Z,9.67
2019-03-19T10:41:28.666Z,9.56
2019-03-19T10:44:00.311Z,9.81
2019-03-19T10:46:31.872Z,10.26
2019-03-19T10:49:03.779Z,10.55
2019-03-19T10:51:35.325Z,10.69
2019-03-19T10:54:06.788Z,10.53
2019-03-19T10:56:39.033Z,10.31
2019-03-19T10:59:10.743Z,10.21
2019-03-19T11:01:42.240Z,10.35
2019-03-19T11:04:14.152Z,10.07
2019-03-19T11:06:45.821Z,10.07
2019-03-19T11:09:17.172Z,9.93
2019-03-19T11:11:48.646Z,9.90
2019-03-19T11:14:20.221Z,10.00
2019-03-19T11:16:51.654Z,10.88
2019-03-19T11:19:22.873Z,10.66
2019-03-19T11:21:54.126Z,11.23
2019-03-19T11:24:25.675Z,10.90
2019-03-19T11:26:57.231Z,10.86
2019-03-19T11:29:29.177Z,10.76
2019-03-19T11:32:01.167Z,10.95
2019-03-19T11:34:33.153Z,10.95
2019-03-19T11:37:04.922Z,11.19
2019-03-19T11:39:36.189Z,11.20
2019-03-19T11:42:08.206Z,11.39
2019-03-19T11:44:42.787Z,11.86
2019-03-19T11:47:14.310Z,11.90
2019-03-19T11:49:45.517Z,12.13
2019-03-19T11:52:17.182Z,11.79
2019-03-19T11:54:48.738Z,11.72
2019-03-19T11:57:19.975Z,11.77
2019-03-19T11:59:52.284Z,11.62
2019-03-19T12:02:26.141Z,11.72
2019-03-19T12:04:57.276Z,12.20
2019-03-19T12:07:28.787Z,12.04
2019-03-19T12:10:01.108Z,12.13
2019-03-19T12:12:32.320Z,12.52
2019-03-19T12:15:03.727Z,12.29
2019-03-19T12:17:35.016Z,12.26
2019-03-19T12:20:06.981Z,11.91
2019-03-19T12:22:38.254Z,11.86
2019-03-19T12:25:10.265Z,11.51
2019-03-19T12:27:41.502Z,11.10
2019-03-19T12:30:21.647Z,10.80
2019-03-19T12:32:46.791Z,10.94
2019-03-19T12:35:19.668Z,10.69
2019-03-19T12:37:50.955Z,10.66
2019-03-19T12:40:22.371Z,10.74
2019-03-19T12:42:53.722Z,10.97
2019-03-19T12:45:25.050Z,11.02
2019-03-19T12:47:56.272Z,10.99
2019-03-19T12:50:27.610Z,11.11
2019-03-19T12:52:59.340Z,11.44
2019-03-19T12:55:31.436Z,11.47
2019-03-19T12:58:03.191Z,11.62
2019-03-19T13:00:35.155Z,11.52
2019-03-19T13:03:07.406Z,11.17
2019-03-19T13:05:38.647Z,11.41
2019-03-19T13:08:10.707Z,11.13
2019-03-19T13:10:42.322Z,11.36
2019-03-19T13:13:13.891Z,11.73
2019-03-19T13:15:45.247Z,11.36
2019-03-19T13:18:16.777Z,10.92
2019-03-19T13:20:47.991Z,10.71
2019-03-19T13:23:19.276Z,10.75
2019-03-19T13:25:50.845Z,10.66
2019-03-19T13:28:22.365Z,10.57
2019-03-19T13:30:53.643Z,10.62
2019-03-19T13:33:25.206Z,10.33
2019-03-19T13:35:56.449Z,10.30
2019-03-19T13:38:27.686Z,10.49
2019-03-19T13:40:58.939Z,10.26
2019-03-19T13:43:30.122Z,10.18
2019-03-19T13:46:02.011Z,10.05
2019-03-19T13:48:34.131Z,9.92
2019-03-19T13:51:06.109Z,9.78
2019-03-19T13:53:37.345Z,9.59
2019-03-19T13:56:08.652Z,9.52
2019-03-19T13:58:39.864Z,9.52
2019-03-19T14:01:11.107Z,9.41
2019-03-19T14:03:42.431Z,9.35
2019-03-19T14:06:14.777Z,9.32
2019-03-19T14:08:46.126Z,9.28
2019-03-19T14:11:17.882Z,9.24
2019-03-19T14:13:49.714Z,9.28
2019-03-19T14:16:20.954Z,9.44
2019-03-19T14:18:52.422Z,9.61
2019-03-19T14:21:23.963Z,9.73
2019-03-19T14:23:55.820Z,10.06
2019-03-19T14:26:27.012Z,10.25
2019-03-19T14:28:58.196Z,10.17
2019-03-19T14:31:29.436Z,10.27
2019-03-19T14:34:02.767Z,10.24
2019-03-19T14:36:34.145Z,10.44
2019-03-19T14:39:08.313Z,10.32
2019-03-19T14:41:40.156Z,10.16
2019-03-19T14:44:11.732Z,10.38
2019-03-19T14:46:42.990Z,10.44
2019-03-19T14:49:14.202Z,10.57
2019-03-19T14:51:45.474Z,10.38
2019-03-19T14:54:16.698Z,10.21
2019-03-19T14:56:47.932Z,10.31
2019-03-19T14:59:19.163Z,10.29
2019-03-19T15:01:50.724Z,10.46
2019-03-19T15:04:22.011Z,10.42
2019-03-19T15:06:53.856Z,10.24
2019-03-19T15:09:25.140Z,10.21
2019-03-19T15:11:56.355Z,10.20
2019-03-19T15:14:27.574Z,10.03
2019-03-19T15:17:04.851Z,10.03
2019-03-19T15:19:32.330Z,9.88
2019-03-19T15:22:03.670Z,9.87
2019-03-19T15:24:34.910Z,9.81
2019-03-19T15:27:06.211Z,9.92
2019-03-19T15:29:37.968Z,9.63
2019-03-19T15:32:09.793Z,9.65
2019-03-19T15:34:41.019Z,9.61
2019-03-19T15:37:12.220Z,9.70
2019-03-19T15:39:43.550Z,9.55
2019-03-19T15:42:14.792Z,9.59
2019-03-19T15:44:46.336Z,9.64
2019-03-19T15:47:18.188Z,9.67
2019-03-19T15:49:49.411Z,9.80
2019-03-19T15:52:20.954Z,9.60
2019-03-19T15:54:52.225Z,9.52
2019-03-19T15:57:24.126Z,9.54
2019-03-19T15:59:55.319Z,9.43
2019-03-19T16:02:26.599Z,9.42
2019-03-19T16:04:58.126Z,9.41
2019-03-19T16:07:29.732Z,9.31
2019-03-19T16:10:01.144Z,9.31
2019-03-19T16:12:32.683Z,9.27
2019-03-19T16:15:04.576Z,9.14
2019-03-19T16:17:36.131Z,9.22
2019-03-19T16:20:10.068Z,9.23
2019-03-19T16:22:41.296Z,9.16
2019-03-19T16:25:13.170Z,9.22
2019-03-19T16:27:44.818Z,9.13
2019-03-19T16:30:16.707Z,9.14
2019-03-19T16:32:48.019Z,9.02
2019-03-19T16:35:19.228Z,8.98
2019-03-19T16:37:50.506Z,8.93
2019-03-19T16:40:22.433Z,8.90
2019-03-19T16:42:53.675Z,8.74
2019-03-19T16:45:24.902Z,8.71
2019-03-19T16:47:56.159Z,8.64
2019-03-19T16:50:27.532Z,8.54
2019-03-19T16:52:59.065Z,8.51
2019-03-19T16:55:30.442Z,8.36
2019-03-19T16:58:02.292Z,8.36
2019-03-19T17:00:33.868Z,8.26
2019-03-19T17:03:05.446Z,8.15
2019-03-19T17:05:36.994Z,8.05
2019-03-19T17:08:08.378Z,7.97
2019-03-19T17:10:39.619Z,7.90
2019-03-19T17:13:12.503Z,7.87
2019-03-19T17:15:43.798Z,7.73
2019-03-19T17:18:15.047Z,7.71
2019-03-19T17:20:46.284Z,7.66
2019-03-19T17:23:17.482Z,7.59
2019-03-19T17:25:48.778Z,7.51
2019-03-19T17:28:22.742Z,7.39
2019-03-19T17:30:53.381Z,7.33
2019-03-19T17:33:25.547Z,7.23
2019-03-19T17:35:56.769Z,7.13
2019-03-19T17:38:28.283Z,7.03
2019-03-19T17:40:59.759Z,6.97
2019-03-19T17:43:32.806Z,6.83
2019-03-19T17:46:04.445Z,6.78
2019-03-19T17:48:35.718Z,6.71
2019-03-19T17:51:07.002Z,6.57
2019-03-19T17:53:38.817Z,6.37
2019-03-19T17:56:10.169Z,6.37
2019-03-19T17:58:41.405Z,6.31
2019-03-19T18:01:17.427Z,6.33
2019-03-19T18:03:45.896Z,6.23
2019-03-19T18:06:17.089Z,6.14
2019-03-19T18:08:48.888Z,6.11
2019-03-19T18:11:20.526Z,6.05
2019-03-19T18:13:51.758Z,5.99
2019-03-19T18:16:23.374Z,5.92
2019-03-19T18:18:54.706Z,5.83
2019-03-19T18:21:26.618Z,5.79
2019-03-19T18:23:58.470Z,5.70
2019-03-19T18:26:30.075Z,5.60
2019-03-19T18:29:02.043Z,5.52
2019-03-19T18:31:33.207Z,5.44
2019-03-19T18:34:10.274Z,5.41
2019-03-19T18:36:37.942Z,5.30
2019-03-19T18:39:10.375Z,5.22
2019-03-19T18:41:42.058Z,5.14
2019-03-19T18:44:13.316Z,5.05
2019-03-19T18:46:44.866Z,4.99
2019-03-19T18:49:16.804Z,4.93
2019-03-19T18:51:48.097Z,4.91
2019-03-19T18:54:19.649Z,4.78
2019-03-19T18:56:50.938Z,4.71
2019-03-19T18:59:22.503Z,4.67
2019-03-19T19:01:53.759Z,4.63
2019-03-19T19:04:26.171Z,4.62
2019-03-19T19:06:58.129Z,4.58
2019-03-19T19:09:29.399Z,4.52
2019-03-19T19:12:00.776Z,4.53
2019-03-19T19:14:32.508Z,4.53
2019-03-19T19:17:03.850Z,4.45
2019-03-19T19:19:35.157Z,4.42
2019-03-19T19:22:06.562Z,4.40
2019-03-19T19:24:38.376Z,4.44
2019-03-19T19:27:10.178Z,4.51
2019-03-19T19:29:41.526Z,4.45
2019-03-19T19:32:13.114Z,4.36
2019-03-19T19:34:44.871Z,4.29
2019-03-19T19:37:16.807Z,4.20
2019-03-19T19:39:48.265Z,4.15
2019-03-19T19:42:19.559Z,4.08
2019-03-19T19:44:50.975Z,4.04
2019-03-19T19:47:22.340Z,4.10
2019-03-19T19:49:53.600Z,3.99
2019-03-19T19:52:25.006Z,3.93
2019-03-19T19:54:56.295Z,3.86
2019-03-19T19:57:27.549Z,3.83
2019-03-19T20:00:01.794Z,3.77
2019-03-19T20:02:32.289Z,3.76
2019-03-19T20:05:03.839Z,3.72
2019-03-19T20:07:35.947Z,3.58
2019-03-19T20:10:10.039Z,3.55
2019-03-19T20:12:41.547Z,3.53
2019-03-19T20:15:13.458Z,3.42
2019-03-19T20:17:45.015Z,3.35
2019-03-19T20:20:18.367Z,3.34
2019-03-19T20:22:49.927Z,3.30
2019-03-19T20:25:21.212Z,3.25
2019-03-19T20:27:52.459Z,3.20
2019-03-19T20:30:23.842Z,3.13
2019-03-19T20:32:55.395Z,3.11
2019-03-19T20:35:26.966Z,3.07
2019-03-19T20:37:58.693Z,3.04
2019-03-19T20:40:30.382Z,3.03
2019-03-19T20:43:02.727Z,3.00
2019-03-19T20:45:34.435Z,2.97
2019-03-19T20:48:05.811Z,2.88
2019-03-19T20:50:37.123Z,2.81
2019-03-19T20:53:08.491Z,2.75
2019-03-19T20:55:39.777Z,2.77
2019-03-19T20:58:12.208Z,2.79
2019-03-19T21:00:43.757Z,2.80
2019-03-19T21:03:15.640Z,2.81
2019-03-19T21:05:47.340Z,2.85
2019-03-19T21:08:18.586Z,2.75
2019-03-19T21:10:50.465Z,2.77
2019-03-19T21:13:22.258Z,2.70
2019-03-19T21:15:53.810Z,2.68
2019-03-19T21:18:25.410Z,2.61
2019-03-19T21:20:57.084Z,2.53
2019-03-19T21:23:28.326Z,2.48
2019-03-19T21:25:59.583Z,2.45
2019-03-19T21:28:31.396Z,2.37
2019-03-19T21:37:27.220Z,2.20
2019-03-19T21:39:58.514Z,2.09
2019-03-19T21:42:30.276Z,2.20
2019-03-19T21:45:01.999Z,2.06
2019-03-19T21:47:33.935Z,1.92
2019-03-19T21:50:05.965Z,1.86
2019-03-19T21:52:39.208Z,1.81
2019-03-19T21:55:14.066Z,1.78
2019-03-19T21:57:45.065Z,1.75
2019-03-19T22:00:18.194Z,1.66
2019-03-19T22:02:49.858Z,1.65
2019-03-19T22:05:21.174Z,1.67
2019-03-19T22:07:53.419Z,1.55
2019-03-19T22:10:24.952Z,1.47
2019-03-19T22:12:56.248Z,1.44
2019-03-19T22:15:27.815Z,1.41
2019-03-19T22:17:59.420Z,1.37
2019-03-19T22:20:31.020Z,1.30
2019-03-19T22:23:02.688Z,1.30
2019-03-19T22:25:33.995Z,1.32
2019-03-19T22:28:05.669Z,1.17
2019-03-19T22:30:37.813Z,1.19
2019-03-19T22:33:09.518Z,1.22
2019-03-19T22:35:41.183Z,1.15
2019-03-19T22:38:12.882Z,1.05
2019-03-19T22:40:44.374Z,1.01
2019-03-19T22:43:15.639Z,1.01
2019-03-19T22:45:46.919Z,1.02
2019-03-19T23:47:25.997Z,0.88
2019-03-19T23:49:57.256Z,0.83
2019-03-19T23:52:28.902Z,0.86
2019-03-19T23:55:00.469Z,0.79
2019-03-19T23:57:32.335Z,0.69
